createdAt,value
2022-07-26T00:01:40.021Z,97618.13
2022-07-26T00:04:09.321Z,97615.75
2022-07-26T00:06:41.248Z,97611.13
2022-07-26T00:09:10.977Z,97612.44
2022-07-26T00:11:42.053Z,97608.25
2022-07-26T00:14:11.333Z,97605.84
2022-07-26T00:16:41.530Z,97609.56
2022-07-26T00:19:11.285Z,97607.19
2022-07-26T00:21:41.708Z,97601.69
2022-07-26T00:24:11.134Z,97603.50
2022-07-26T00:26:41.808Z,97592.56
2022-07-26T00:29:11.931Z,97596.13
2022-07-26T00:31:41.568Z,97590.66
2022-07-26T00:34:10.774Z,97602.38
2022-07-26T00:36:41.106Z,97603.16
2022-07-26T00:39:11.576Z,97613.66
2022-07-26T00:41:42.658Z,97622.78
2022-07-26T00:44:12.734Z,97626.84
2022-07-26T00:46:43.856Z,97620.06
2022-07-26T00:49:13.804Z,97618.50
2022-07-26T00:51:45.685Z,97609.13
2022-07-26T00:54:18.298Z,97604.97
2022-07-26T00:56:53.370Z,97600.28
2022-07-26T00:59:24.555Z,97591.50
2022-07-26T01:01:54.258Z,97579.47
2022-07-26T01:04:23.913Z,97590.75
2022-07-26T01:06:53.442Z,97583.16
2022-07-26T01:09:22.623Z,97587.09
2022-07-26T01:11:53.395Z,97584.19
2022-07-26T01:14:22.971Z,97585.97
2022-07-26T01:16:55.423Z,97586.75
2022-07-26T01:19:24.800Z,97581.03
2022-07-26T01:21:55.626Z,97569.03
2022-07-26T01:24:24.895Z,97561.75
2022-07-26T01:26:55.629Z,97556.03
2022-07-26T01:29:34.725Z,97554.97
2022-07-26T01:32:06.719Z,97560.44
2022-07-26T01:34:36.065Z,97558.31
2022-07-26T01:37:07.258Z,97563.06
2022-07-26T01:39:36.996Z,97559.69
2022-07-26T01:42:06.729Z,97558.97
2022-07-26T01:44:36.036Z,97555.00
2022-07-26T01:47:05.413Z,97556.56
2022-07-26T01:49:34.838Z,97536.78
2022-07-26T01:52:04.118Z,97536.78
2022-07-26T01:54:34.817Z,97534.50
2022-07-26T01:57:04.079Z,97541.25
2022-07-26T01:59:33.340Z,97535.75
2022-07-26T02:02:02.724Z,97551.69
2022-07-26T02:04:49.399Z,97562.41
2022-07-26T02:07:18.742Z,97553.28
2022-07-26T02:09:49.949Z,97550.38
2022-07-26T02:12:19.301Z,97545.44
2022-07-26T02:14:48.546Z,97536.31
2022-07-26T02:17:18.208Z,97525.41
2022-07-26T02:19:47.523Z,97534.75
2022-07-26T02:22:16.766Z,97541.03
2022-07-26T02:24:45.979Z,97546.78
2022-07-26T02:27:17.711Z,97555.63
2022-07-26T02:29:47.285Z,97552.50
2022-07-26T02:32:16.656Z,97564.72
2022-07-26T02:34:45.964Z,97581.66
2022-07-26T02:37:15.313Z,97583.72
2022-07-26T02:39:44.666Z,97585.56
2022-07-26T02:42:13.855Z,97578.25
2022-07-26T02:44:44.526Z,97575.66
2022-07-26T02:47:13.778Z,97582.94
2022-07-26T02:49:43.110Z,97579.34
2022-07-26T02:52:12.384Z,97578.56
2022-07-26T02:54:41.514Z,97570.22
2022-07-26T02:57:25.964Z,97573.59
2022-07-26T02:59:56.538Z,97580.09
2022-07-26T03:02:25.838Z,97582.94
2022-07-26T03:04:55.142Z,97585.03
2022-07-26T03:07:24.424Z,97585.28
2022-07-26T03:09:53.720Z,97576.50
2022-07-26T03:12:22.872Z,97570.78
2022-07-26T03:14:52.213Z,97567.16
2022-07-26T03:17:22.874Z,97578.09
2022-07-26T03:19:53.362Z,97596.59
2022-07-26T03:22:22.875Z,97599.19
2022-07-26T03:24:53.690Z,97589.50
2022-07-26T03:27:23.306Z,97578.03
2022-07-26T03:29:52.642Z,97585.34
2022-07-26T03:32:23.560Z,97599.88
2022-07-26T03:34:53.308Z,97606.88
2022-07-26T03:37:23.285Z,97604.78
2022-07-26T03:39:52.559Z,97607.91
2022-07-26T03:42:21.886Z,97614.69
2022-07-26T03:44:51.211Z,97615.47
2022-07-26T03:47:20.905Z,97617.31
2022-07-26T03:49:51.534Z,97631.38
2022-07-26T03:52:21.253Z,97636.84
2022-07-26T03:54:50.544Z,97631.66
2022-07-26T03:57:18.758Z,97643.03
2022-07-26T03:59:48.146Z,97646.72
2022-07-26T04:02:18.869Z,97649.31
2022-07-26T04:04:48.278Z,97640.81
2022-07-26T04:07:18.819Z,97651.19
2022-07-26T04:09:48.585Z,97666.78
2022-07-26T04:12:17.771Z,97663.94
2022-07-26T04:14:47.070Z,97661.88
2022-07-26T04:17:16.334Z,97661.63
2022-07-26T04:19:45.707Z,97671.28
2022-07-26T04:22:14.897Z,97677.56
2022-07-26T04:24:45.533Z,97685.91
2022-07-26T04:27:14.771Z,97691.16
2022-07-26T04:29:44.002Z,97687.78
2022-07-26T04:32:13.198Z,97695.16
2022-07-26T04:34:42.393Z,97697.78
2022-07-26T04:37:11.578Z,97715.00
2022-07-26T04:39:40.779Z,97731.69
2022-07-26T04:42:11.751Z,97729.59
2022-07-26T04:44:41.019Z,97727.81
2022-07-26T04:47:10.212Z,97726.47
2022-07-26T04:49:39.546Z,97716.31
2022-07-26T04:52:08.823Z,97727.81
2022-07-26T04:54:38.138Z,97739.56
2022-07-26T04:57:07.508Z,97760.94
2022-07-26T04:59:38.339Z,97753.88
2022-07-26T05:02:07.637Z,97763.81
2022-07-26T05:04:36.933Z,97757.03
2022-07-26T05:07:06.134Z,97769.84
2022-07-26T05:09:35.653Z,97765.38
2022-07-26T05:12:06.066Z,97778.69
2022-07-26T05:14:35.270Z,97775.28
2022-07-26T05:17:08.930Z,97775.78
2022-07-26T05:19:39.690Z,97776.31
2022-07-26T05:22:08.991Z,97783.88
2022-07-26T05:24:38.105Z,97788.84
2022-07-26T05:27:07.399Z,97792.50
2022-07-26T05:29:36.609Z,97799.81
2022-07-26T05:32:08.229Z,97801.69
2022-07-26T05:34:37.559Z,97799.31
2022-07-26T05:37:06.726Z,97808.72
2022-07-26T05:39:36.022Z,97809.22
2022-07-26T05:42:05.263Z,97808.47
2022-07-26T05:44:34.573Z,97822.78
2022-07-26T05:47:04.060Z,97832.72
2022-07-26T05:49:40.053Z,97839.53
2022-07-26T05:52:10.358Z,97842.41
2022-07-26T05:54:39.665Z,97853.38
2022-07-26T05:57:08.854Z,97847.34
2022-07-26T05:59:38.096Z,97860.69
2022-07-26T06:02:08.474Z,97867.72
2022-07-26T06:04:39.653Z,97856.78
2022-07-26T06:07:08.942Z,97863.81
2022-07-26T06:09:38.419Z,97835.09
2022-07-26T06:12:08.437Z,97824.88
2022-07-26T06:14:37.685Z,97808.16
2022-07-26T06:17:07.091Z,97811.00
2022-07-26T06:19:38.159Z,97827.97
2022-07-26T06:22:07.457Z,97836.56
2022-07-26T06:24:36.680Z,97855.16
2022-07-26T06:27:06.166Z,97842.59
2022-07-26T06:29:37.879Z,97851.75
2022-07-26T06:32:08.832Z,97855.66
2022-07-26T06:34:39.483Z,97860.09
2022-07-26T06:37:08.765Z,97860.84
2022-07-26T06:39:38.205Z,97857.97
2022-07-26T06:42:07.684Z,97875.44
2022-07-26T06:44:39.534Z,97875.75
2022-07-26T06:47:08.725Z,97873.91
2022-07-26T06:49:39.311Z,97871.78
2022-07-26T06:52:08.617Z,97870.06
2022-07-26T06:54:38.885Z,97864.59
2022-07-26T06:57:08.093Z,97866.69
2022-07-26T06:59:37.457Z,97867.47
2022-07-26T07:02:07.117Z,97866.94
2022-07-26T07:04:38.336Z,97872.44
2022-07-26T07:07:08.499Z,97872.94
2022-07-26T07:09:38.802Z,97877.88
2022-07-26T07:12:10.606Z,97879.47
2022-07-26T07:14:40.914Z,97885.50
2022-07-26T07:17:13.188Z,97881.81
2022-07-26T07:19:44.685Z,97897.41
2022-07-26T07:22:13.913Z,97900.53
2022-07-26T07:24:44.394Z,97890.56
2022-07-26T07:27:16.049Z,97886.38
2022-07-26T07:29:46.285Z,97873.91
2022-07-26T07:32:18.427Z,97881.75
2022-07-26T07:34:50.735Z,97877.63
2022-07-26T07:37:21.462Z,97877.13
2022-07-26T07:39:52.857Z,97875.81
2022-07-26T07:42:23.436Z,97885.47
2022-07-26T07:44:52.726Z,97879.19
2022-07-26T07:47:22.329Z,97893.34
2022-07-26T07:49:53.056Z,97900.84
2022-07-26T07:52:22.443Z,97903.75
2022-07-26T07:54:51.909Z,97914.22
2022-07-26T07:57:21.608Z,97931.47
2022-07-26T07:59:53.567Z,97932.22
2022-07-26T08:02:23.027Z,97936.38
2022-07-26T08:04:54.224Z,97948.63
2022-07-26T08:07:23.671Z,97946.72
2022-07-26T08:10:02.759Z,97958.06
2022-07-26T08:12:32.273Z,97957.53
2022-07-26T08:15:02.613Z,97969.31
2022-07-26T08:17:38.056Z,97982.38
2022-07-26T08:20:15.956Z,97974.28
2022-07-26T08:22:45.490Z,97979.81
2022-07-26T08:25:14.959Z,97978.25
2022-07-26T08:28:00.509Z,97988.47
2022-07-26T08:30:35.436Z,97973.28
2022-07-26T08:33:05.573Z,97973.81
2022-07-26T08:35:41.809Z,97970.63
2022-07-26T08:38:13.512Z,97980.53
2022-07-26T08:40:47.652Z,97970.03
2022-07-26T08:43:17.938Z,97981.22
2022-07-26T08:45:48.257Z,97989.03
2022-07-26T08:48:19.742Z,97996.03
2022-07-26T08:50:50.861Z,97987.13
2022-07-26T08:53:20.717Z,97991.25
2022-07-26T08:56:06.326Z,97995.94
2022-07-26T08:58:37.389Z,97998.56
2022-07-26T09:01:09.163Z,97995.94
2022-07-26T09:03:38.866Z,97990.19
2022-07-26T09:06:18.092Z,97995.16
2022-07-26T09:08:50.061Z,97999.88
2022-07-26T09:11:33.653Z,97998.09
2022-07-26T09:14:05.253Z,98003.81
2022-07-26T09:16:39.221Z,98006.91
2022-07-26T09:19:22.809Z,98008.44
2022-07-26T09:21:55.642Z,98013.06
2022-07-26T09:24:37.679Z,98016.19
2022-07-26T09:27:11.880Z,98022.44
2022-07-26T09:29:57.446Z,98029.47
2022-07-26T09:32:28.484Z,98032.16
2022-07-26T09:35:44.173Z,98033.22
2022-07-26T09:38:17.679Z,98034.25
2022-07-26T09:41:23.666Z,98037.69
2022-07-26T09:43:54.161Z,98042.22
2022-07-26T09:46:26.450Z,98043.47
2022-07-26T09:49:12.626Z,98040.47
2022-07-26T09:51:44.111Z,98042.66
2022-07-26T09:54:22.096Z,98034.63
2022-07-26T09:56:53.767Z,98038.19
2022-07-26T09:59:25.689Z,98042.84
2022-07-26T10:02:00.765Z,98042.28
2022-07-26T10:04:30.416Z,98031.53
2022-07-26T10:07:02.048Z,98050.13
2022-07-26T10:09:41.635Z,98050.13
2022-07-26T10:12:30.973Z,98054.56
2022-07-26T10:15:01.195Z,98053.78
2022-07-26T10:17:49.391Z,98051.06
2022-07-26T10:20:44.044Z,98057.72
2022-07-26T10:23:44.088Z,98050.78
2022-07-26T10:26:43.085Z,98059.38
2022-07-26T10:29:30.530Z,98057.81
2022-07-26T10:32:20.734Z,98057.56
2022-07-26T10:34:50.274Z,98067.06
2022-07-26T10:37:28.221Z,98057.56
2022-07-26T10:40:22.589Z,98062.63
2022-07-26T10:42:55.938Z,98068.53
2022-07-26T10:45:25.640Z,98069.09
2022-07-26T10:48:17.260Z,98066.78
2022-07-26T10:50:48.896Z,98075.03
2022-07-26T10:53:22.312Z,98068.88
2022-07-26T10:55:57.135Z,98059.44
2022-07-26T10:58:30.711Z,98054.19
2022-07-26T11:01:02.535Z,98053.84
2022-07-26T11:03:45.132Z,98045.94
2022-07-26T11:06:19.825Z,98052.78
2022-07-26T11:08:49.910Z,98050.31
2022-07-26T11:11:31.008Z,98042.75
2022-07-26T11:14:15.072Z,98037.22
2022-07-26T11:16:48.342Z,98037.88
2022-07-26T11:19:20.669Z,98031.19
2022-07-26T11:21:57.302Z,98024.50
2022-07-26T11:24:29.719Z,98028.75
2022-07-26T11:27:06.260Z,98035.19
2022-07-26T11:29:41.091Z,98037.84
2022-07-26T11:32:20.433Z,98044.09
2022-07-26T11:35:00.564Z,98039.44
2022-07-26T11:37:30.172Z,98038.31
2022-07-26T11:39:59.479Z,98033.41
2022-07-26T11:42:28.682Z,98039.84
2022-07-26T11:44:59.905Z,98040.06
2022-07-26T11:47:29.292Z,98027.28
2022-07-26T11:50:22.122Z,98036.66
2022-07-26T11:52:52.321Z,98027.16
2022-07-26T11:55:28.773Z,98029.06
2022-07-26T11:58:05.057Z,98039.94
2022-07-26T12:00:37.223Z,98025.44
2022-07-26T12:03:06.591Z,98036.66
2022-07-26T12:05:37.124Z,98031.22
2022-07-26T12:08:08.631Z,98024.84
2022-07-26T12:10:38.809Z,98034.28
2022-07-26T12:13:11.178Z,98033.34
2022-07-26T12:15:51.356Z,98031.59
2022-07-26T12:18:26.469Z,98025.72
2022-07-26T12:21:07.172Z,98022.38
2022-07-26T12:23:46.816Z,98029.09
2022-07-26T12:26:26.545Z,98029.94
2022-07-26T12:29:27.677Z,98037.00
2022-07-26T12:32:12.488Z,98028.41
2022-07-26T12:34:55.337Z,98021.03
2022-07-26T12:37:32.586Z,98011.00
2022-07-26T12:40:12.315Z,98013.75
2022-07-26T12:42:44.379Z,98016.47
2022-07-26T12:45:17.252Z,98018.63
2022-07-26T12:47:51.976Z,98013.91
2022-07-26T12:50:25.607Z,98021.44
2022-07-26T12:53:02.886Z,98021.91
2022-07-26T12:55:34.981Z,98022.28
2022-07-26T12:58:05.559Z,98013.16
2022-07-26T13:00:35.085Z,98013.88
2022-07-26T13:03:08.398Z,98010.47
2022-07-26T13:05:38.621Z,98010.81
2022-07-26T13:08:07.877Z,98005.09
2022-07-26T13:10:37.438Z,97994.47
2022-07-26T13:13:08.122Z,97987.44
2022-07-26T13:15:38.117Z,97988.69
2022-07-26T13:18:10.382Z,97981.56
2022-07-26T13:20:39.907Z,97985.38
2022-07-26T13:23:13.880Z,97975.28
2022-07-26T13:25:45.430Z,97971.97
2022-07-26T13:28:15.850Z,97963.66
2022-07-26T13:30:45.535Z,97974.09
2022-07-26T13:33:18.014Z,97973.69
2022-07-26T13:35:50.364Z,97982.13
2022-07-26T13:38:20.786Z,97979.72
2022-07-26T13:40:50.807Z,97972.44
2022-07-26T13:43:19.996Z,97961.53
2022-07-26T13:45:50.285Z,97972.78
2022-07-26T13:48:21.180Z,97976.03
2022-07-26T13:50:51.021Z,97966.81
2022-07-26T13:53:20.235Z,97967.34
2022-07-26T13:55:49.811Z,97973.06
2022-07-26T13:58:22.905Z,97952.69
2022-07-26T14:00:53.272Z,97954.66
2022-07-26T14:03:24.153Z,97948.06
2022-07-26T14:05:53.762Z,97960.03
2022-07-26T14:08:23.264Z,97957.28
2022-07-26T14:10:53.164Z,97966.84
2022-07-26T14:13:22.400Z,97957.84
2022-07-26T14:15:54.079Z,97966.19
2022-07-26T14:18:24.826Z,97967.25
2022-07-26T14:20:55.277Z,97962.25
2022-07-26T14:23:24.606Z,97953.59
2022-07-26T14:25:54.663Z,97956.34
2022-07-26T14:28:24.227Z,97960.63
2022-07-26T14:30:53.518Z,97950.91
2022-07-26T14:33:24.102Z,97961.53
2022-07-26T14:35:53.459Z,97938.41
2022-07-26T14:38:28.144Z,97948.06
2022-07-26T14:41:01.169Z,97944.88
2022-07-26T14:43:30.479Z,97935.91
2022-07-26T14:45:59.909Z,97940.22
2022-07-26T14:48:52.981Z,97943.84
2022-07-26T14:51:20.118Z,97935.91
2022-07-26T14:53:55.473Z,97940.34
2022-07-26T14:56:24.743Z,97923.81
2022-07-26T14:58:54.232Z,97921.19
2022-07-26T15:01:23.487Z,97921.84
2022-07-26T15:03:54.167Z,97916.63
2022-07-26T15:06:23.520Z,97925.41
2022-07-26T15:08:52.674Z,97918.13
2022-07-26T15:11:21.972Z,97903.38
2022-07-26T15:13:51.277Z,97907.88
2022-07-26T15:16:21.453Z,97915.66
2022-07-26T15:18:50.686Z,97925.09
2022-07-26T15:21:21.597Z,97926.44
2022-07-26T15:23:50.843Z,97929.13
2022-07-26T15:26:20.275Z,97932.91
2022-07-26T15:28:49.815Z,97927.56
2022-07-26T15:31:19.461Z,97915.78
2022-07-26T15:33:48.936Z,97907.16
2022-07-26T15:36:20.440Z,97899.25
2022-07-26T15:38:51.250Z,97899.38
2022-07-26T15:41:20.907Z,97891.69
2022-07-26T15:43:50.502Z,97893.72
2022-07-26T15:46:19.761Z,97907.53
2022-07-26T15:48:51.194Z,97907.69
2022-07-26T15:58:56.739Z,97915.88
2022-07-26T16:01:38.309Z,97911.34
2022-07-26T16:04:12.406Z,97916.97
2022-07-26T16:07:18.098Z,97918.78
2022-07-26T16:09:51.164Z,97912.75
2022-07-26T16:12:24.095Z,97911.63
2022-07-26T16:14:54.746Z,97918.00
2022-07-26T16:17:24.161Z,97907.72
2022-07-26T16:19:53.672Z,97916.44
2022-07-26T16:22:23.368Z,97921.91
2022-07-26T16:24:52.796Z,97925.75
2022-07-26T16:27:22.030Z,97930.53
2022-07-26T16:29:52.503Z,97948.97
2022-07-26T16:32:25.911Z,97941.75
2022-07-26T16:34:55.183Z,97956.03
2022-07-26T16:37:24.461Z,97958.50
2022-07-26T16:39:55.817Z,97959.06
2022-07-26T16:42:27.750Z,97964.72
2022-07-26T16:44:57.007Z,97969.34
2022-07-26T16:47:27.645Z,97984.44
2022-07-26T16:49:56.999Z,97976.13
2022-07-26T16:52:26.161Z,97990.63
2022-07-26T16:54:55.318Z,97982.59
2022-07-26T16:57:24.510Z,97999.38
2022-07-26T16:59:53.751Z,98020.84
2022-07-26T17:02:23.034Z,98028.78
2022-07-26T17:04:55.866Z,97998.88
2022-07-26T17:07:26.266Z,97997.00
2022-07-26T17:09:56.426Z,97996.97
2022-07-26T17:12:26.345Z,97999.28
2022-07-26T17:14:55.628Z,97997.91
2022-07-26T17:17:24.985Z,97999.34
2022-07-26T17:19:56.242Z,98006.91
2022-07-26T17:22:25.468Z,98018.50
2022-07-26T17:24:54.689Z,98014.50
2022-07-26T17:27:23.874Z,98018.84
2022-07-26T17:29:53.228Z,98020.88
2022-07-26T17:32:22.377Z,98019.34
2022-07-26T17:34:52.962Z,98027.56
2022-07-26T17:37:27.817Z,98030.66
2022-07-26T17:39:57.836Z,98027.94
2022-07-26T17:42:27.440Z,98035.25
2022-07-26T17:44:56.645Z,98045.16
2022-07-26T17:47:27.924Z,98039.81
2022-07-26T17:50:26.196Z,98043.34
2022-07-26T17:52:53.313Z,98030.44
2022-07-26T17:55:23.043Z,98026.75
2022-07-26T17:57:52.983Z,98025.06
2022-07-26T18:00:26.969Z,98036.00
2022-07-26T18:02:58.979Z,98042.75
2022-07-26T18:05:34.949Z,98040.03
2022-07-26T18:08:08.221Z,98036.88
2022-07-26T18:10:37.438Z,98039.81
2022-07-26T18:13:06.966Z,98047.19
2022-07-26T18:15:38.646Z,98042.91
2022-07-26T18:18:11.193Z,98046.69
2022-07-26T18:20:40.580Z,98037.34
2022-07-26T18:23:11.390Z,98034.78
2022-07-26T18:25:40.649Z,98035.34
2022-07-26T18:28:10.635Z,98042.16
2022-07-26T18:30:40.122Z,98041.38
2022-07-26T18:33:12.113Z,98054.56
2022-07-26T18:35:41.806Z,98056.16
2022-07-26T18:38:12.671Z,98059.28
2022-07-26T18:40:42.250Z,98060.22
2022-07-26T18:43:11.665Z,98057.78
2022-07-26T18:45:40.993Z,98065.06
2022-07-26T18:48:10.175Z,98073.69
2022-07-26T18:50:40.930Z,98070.44
2022-07-26T18:53:16.221Z,98074.38
2022-07-26T18:55:45.608Z,98080.50
2022-07-26T18:58:15.063Z,98081.19
2022-07-26T19:00:46.760Z,98080.69
2022-07-26T19:03:16.752Z,98079.19
2022-07-26T19:05:48.440Z,98081.72
2022-07-26T19:08:19.545Z,98083.19
2022-07-26T19:10:51.502Z,98082.31
2022-07-26T19:13:20.740Z,98084.84
2022-07-26T19:15:49.986Z,98099.47
2022-07-26T19:18:19.635Z,98107.69
2022-07-26T19:20:49.469Z,98101.88
2022-07-26T19:23:21.779Z,98096.72
2022-07-26T19:25:51.113Z,98093.94
2022-07-26T19:28:20.329Z,98113.22
2022-07-26T19:30:49.613Z,98112.31
2022-07-26T19:33:19.714Z,98114.81
2022-07-26T19:35:50.435Z,98125.59
2022-07-26T19:38:29.852Z,98133.94
2022-07-26T19:40:59.079Z,98123.09
2022-07-26T19:43:28.993Z,98116.16
2022-07-26T19:45:59.722Z,98122.56
2022-07-26T19:48:29.137Z,98119.91
2022-07-26T19:50:58.728Z,98125.81
2022-07-26T19:53:29.307Z,98130.31
2022-07-26T19:55:58.781Z,98130.13
2022-07-26T19:58:29.237Z,98117.16
2022-07-26T20:00:58.955Z,98121.03
2022-07-26T20:03:29.204Z,98128.22
2022-07-26T20:05:59.837Z,98127.25
2022-07-26T20:08:31.703Z,98128.06
2022-07-26T20:11:01.396Z,98113.53
2022-07-26T20:13:33.016Z,98115.84
2022-07-26T20:16:05.722Z,98116.75
2022-07-26T20:18:35.616Z,98116.84
2022-07-26T20:21:05.374Z,98108.34
2022-07-26T20:24:38.880Z,98100.38
2022-07-26T20:27:10.140Z,98111.47
2022-07-26T20:30:01.218Z,98100.00
2022-07-26T20:32:31.082Z,98098.16
2022-07-26T20:35:01.131Z,98099.91
2022-07-26T20:37:30.656Z,98095.38
2022-07-26T20:40:22.291Z,98089.38
2022-07-26T20:43:09.496Z,98090.09
2022-07-26T20:45:38.818Z,98094.22
2022-07-26T20:48:09.115Z,98093.25
2022-07-26T20:50:39.905Z,98095.16
2022-07-26T20:53:12.708Z,98095.53
2022-07-26T20:55:42.113Z,98101.25
2022-07-26T20:58:14.951Z,98103.81
2022-07-26T21:00:44.258Z,98111.09
2022-07-26T21:03:16.861Z,98118.22
2022-07-26T21:05:47.825Z,98102.53
2022-07-26T21:08:18.141Z,98113.09
2022-07-26T21:10:47.727Z,98110.88
2022-07-26T21:13:20.101Z,98111.69
2022-07-26T21:15:53.333Z,98119.91
2022-07-26T21:18:24.198Z,98127.88
2022-07-26T21:20:54.598Z,98128.66
2022-07-26T21:27:39.466Z,98124.88
2022-07-26T21:30:11.871Z,98121.19
2022-07-26T21:32:41.146Z,98130.34
2022-07-26T21:35:11.055Z,98125.94
2022-07-26T21:37:42.655Z,98130.72
2022-07-26T21:40:15.823Z,98125.34
2022-07-26T21:42:45.049Z,98119.66
2022-07-26T21:45:16.055Z,98127.88
2022-07-26T21:47:45.467Z,98129.63
2022-07-26T21:50:14.914Z,98130.91
2022-07-26T21:52:44.097Z,98132.78
2022-07-26T21:55:17.824Z,98130.72
2022-07-26T21:57:47.712Z,98133.56
2022-07-26T22:00:19.340Z,98144.00
2022-07-26T22:02:48.857Z,98129.16
2022-07-26T22:05:38.259Z,98121.25
2022-07-26T22:08:09.939Z,98119.53
2022-07-26T22:10:44.686Z,98131.38
2022-07-26T22:13:15.565Z,98134.22
2022-07-26T22:15:47.124Z,98131.53
2022-07-26T22:18:22.055Z,98124.88
2022-07-26T22:20:51.417Z,98130.13
2022-07-26T22:23:20.978Z,98135.81
2022-07-26T22:25:50.772Z,98125.34
2022-07-26T22:28:20.059Z,98122.53
2022-07-26T22:30:50.819Z,98125.06
2022-07-26T22:33:20.896Z,98126.78
2022-07-26T22:35:50.372Z,98119.97
2022-07-26T22:38:19.819Z,98127.41
2022-07-26T22:40:49.222Z,98123.78
2022-07-26T22:43:19.498Z,98124.41
2022-07-26T22:45:51.821Z,98120.94
2022-07-26T22:48:21.130Z,98124.75
2022-07-26T22:50:50.533Z,98132.16
2022-07-26T22:53:20.978Z,98133.28
2022-07-26T22:55:51.017Z,98126.63
2022-07-26T22:58:20.935Z,98117.91
2022-07-26T23:00:51.718Z,98130.72
2022-07-26T23:03:21.790Z,98123.59
2022-07-26T23:05:52.219Z,98131.03
2022-07-26T23:08:47.091Z,98125.34
2022-07-26T23:11:11.140Z,98126.28
2022-07-26T23:13:42.886Z,98113.44
2022-07-26T23:16:13.639Z,98117.41
2022-07-26T23:18:42.974Z,98125.31
2022-07-26T23:21:12.230Z,98109.81
2022-07-26T23:23:41.468Z,98118.34
2022-07-26T23:26:10.888Z,98121.16
2022-07-26T23:28:40.138Z,98124.34
2022-07-26T23:31:11.042Z,98115.34
2022-07-26T23:33:51.414Z,98113.00
2022-07-26T23:36:25.144Z,98115.03
2022-07-26T23:38:55.272Z,98114.25
2022-07-26T23:41:24.829Z,98106.22
2022-07-26T23:43:54.681Z,98107.94
2022-07-26T23:46:24.634Z,98113.28
2022-07-26T23:48:56.388Z,98118.69
2022-07-26T23:51:26.063Z,98121.19
2022-07-26T23:53:55.366Z,98122.94
2022-07-26T23:56:24.722Z,98114.22
2022-07-26T23:58:54.004Z,98109.81
